createdAt,value
2023-05-14T00:02:16.517Z,16.75
2023-05-14T00:04:43.837Z,15.50
2023-05-14T00:07:11.638Z,16.38
2023-05-14T00:09:38.702Z,16.85
2023-05-14T00:12:05.950Z,16.58
2023-05-14T00:14:33.171Z,17.77
2023-05-14T00:17:00.203Z,15.48
2023-05-14T00:19:27.353Z,15.60
2023-05-14T00:21:54.484Z,15.13
2023-05-14T00:24:21.864Z,15.13
2023-05-14T00:26:49.056Z,14.15
2023-05-14T00:29:16.237Z,17.20
2023-05-14T00:31:43.472Z,18.92
2023-05-14T00:34:10.750Z,20.27
2023-05-14T00:36:37.919Z,21.35
2023-05-14T00:39:04.997Z,22.02
2023-05-14T00:41:32.084Z,23.55
2023-05-14T00:43:59.091Z,24.30
2023-05-14T00:46:26.512Z,24.25
2023-05-14T00:48:54.169Z,24.40
2023-05-14T00:51:21.367Z,23.10
2023-05-14T00:53:48.707Z,22.38
2023-05-14T00:56:16.187Z,22.10
2023-05-14T00:58:43.275Z,22.20
2023-05-14T01:01:10.466Z,22.65
2023-05-14T01:03:37.889Z,22.08
2023-05-14T01:06:05.255Z,21.75
2023-05-14T01:08:35.426Z,20.73
2023-05-14T01:11:12.059Z,20.77
2023-05-14T01:13:52.747Z,20.48
2023-05-14T01:16:20.221Z,20.42
2023-05-14T01:18:47.558Z,19.48
2023-05-14T01:21:25.164Z,20.02
2023-05-14T01:23:52.234Z,19.58
2023-05-14T01:26:20.817Z,19.23
2023-05-14T01:28:48.173Z,18.77
2023-05-14T01:31:17.100Z,20.13
2023-05-14T01:33:44.226Z,19.75
2023-05-14T01:36:11.301Z,19.13
2023-05-14T01:38:38.400Z,20.45
2023-05-14T01:41:05.561Z,19.52
2023-05-14T01:43:32.764Z,18.60
2023-05-14T01:45:59.949Z,17.58
2023-05-14T01:48:27.007Z,18.83
2023-05-14T01:50:54.037Z,19.42
2023-05-14T01:53:21.379Z,18.17
2023-05-14T01:55:48.448Z,17.48
2023-05-14T01:58:15.560Z,17.45
2023-05-14T02:00:42.599Z,18.00
2023-05-14T02:03:09.742Z,19.23
2023-05-14T02:05:36.829Z,18.80
2023-05-14T02:08:03.974Z,19.65
2023-05-14T02:10:30.986Z,20.35
2023-05-14T02:12:58.091Z,20.90
2023-05-14T02:15:25.340Z,21.42
2023-05-14T02:17:52.590Z,22.05
2023-05-14T02:20:19.866Z,21.70
2023-05-14T02:22:46.984Z,21.55
2023-05-14T02:25:14.068Z,25.98
2023-05-14T02:27:41.135Z,20.98
2023-05-14T02:30:08.532Z,20.42
2023-05-14T02:32:35.929Z,20.20
2023-05-14T02:35:03.163Z,19.63
2023-05-14T02:37:30.221Z,19.55
2023-05-14T02:39:57.295Z,18.98
2023-05-14T02:42:24.416Z,18.85
2023-05-14T02:44:52.308Z,18.73
2023-05-14T02:47:19.403Z,17.50
2023-05-14T02:49:46.518Z,17.10
2023-05-14T02:52:13.591Z,16.50
2023-05-14T02:54:40.714Z,15.50
2023-05-14T02:57:07.802Z,16.02
2023-05-14T02:59:35.273Z,17.13
2023-05-14T03:02:02.754Z,17.08
2023-05-14T03:04:30.383Z,17.60
2023-05-14T03:06:57.471Z,16.88
2023-05-14T03:09:24.502Z,18.52
2023-05-14T03:11:51.518Z,17.35
2023-05-14T03:14:18.625Z,16.95
2023-05-14T03:16:46.102Z,16.35
2023-05-14T03:19:13.357Z,15.52
2023-05-14T03:21:40.678Z,16.63
2023-05-14T03:24:07.762Z,15.60
2023-05-14T03:26:34.916Z,16.10
2023-05-14T03:29:03.215Z,16.00
2023-05-14T03:31:30.365Z,15.50
2023-05-14T03:33:57.446Z,14.95
2023-05-14T03:36:24.533Z,15.73
2023-05-14T03:38:51.598Z,15.63
2023-05-14T03:41:20.013Z,16.73
2023-05-14T03:43:47.150Z,16.40
2023-05-14T03:46:14.206Z,18.52
2023-05-14T03:48:41.277Z,17.65
2023-05-14T03:51:08.343Z,17.85
2023-05-14T03:53:35.518Z,18.83
2023-05-14T03:56:02.606Z,18.17
2023-05-14T03:58:29.748Z,18.48
2023-05-14T04:00:56.834Z,18.48
2023-05-14T04:03:23.914Z,18.92
2023-05-14T04:05:51.589Z,18.45
2023-05-14T04:08:18.630Z,18.83
2023-05-14T04:10:45.759Z,18.17
2023-05-14T04:13:12.830Z,17.30
2023-05-14T04:15:39.954Z,17.23
2023-05-14T04:18:07.269Z,17.38
2023-05-14T04:20:34.373Z,17.23
2023-05-14T04:23:01.435Z,17.23
2023-05-14T04:25:28.603Z,17.40
2023-05-14T04:27:55.653Z,16.20
2023-05-14T04:30:23.064Z,16.48
2023-05-14T04:32:50.371Z,17.98
2023-05-14T04:35:17.460Z,18.05
2023-05-14T04:37:44.575Z,18.23
2023-05-14T04:40:12.472Z,18.20
2023-05-14T04:42:39.563Z,17.23
2023-05-14T04:45:07.148Z,16.48
2023-05-14T04:47:34.304Z,16.48
2023-05-14T04:50:01.450Z,15.80
2023-05-14T04:52:28.622Z,18.27
2023-05-14T04:54:56.945Z,17.85
2023-05-14T04:57:24.062Z,18.48
2023-05-14T04:59:51.190Z,18.27
2023-05-14T05:02:18.315Z,17.63
2023-05-14T05:04:47.115Z,19.02
2023-05-14T05:07:14.629Z,19.67
2023-05-14T05:09:41.812Z,20.45
2023-05-14T05:12:09.053Z,19.98
2023-05-14T05:14:36.131Z,20.92
2023-05-14T05:17:03.843Z,20.02
2023-05-14T05:19:42.382Z,20.05
2023-05-14T05:22:10.635Z,20.17
2023-05-14T05:24:37.774Z,20.23
2023-05-14T05:27:05.567Z,21.05
2023-05-14T05:29:32.696Z,20.92
2023-05-14T05:31:59.957Z,22.25
2023-05-14T05:34:27.033Z,22.90
2023-05-14T05:36:54.091Z,24.60
2023-05-14T05:39:21.171Z,24.73
2023-05-14T05:41:48.258Z,24.27
2023-05-14T05:44:15.290Z,25.17
2023-05-14T05:46:42.448Z,25.77
2023-05-14T05:49:09.617Z,23.58
2023-05-14T05:51:36.700Z,24.02
2023-05-14T05:54:03.851Z,22.83
2023-05-14T05:56:30.932Z,21.77
2023-05-14T05:58:58.099Z,21.85
2023-05-14T06:01:25.242Z,22.25
2023-05-14T06:03:56.978Z,21.42
2023-05-14T06:06:24.062Z,22.17
2023-05-14T06:08:51.159Z,20.33
2023-05-14T06:11:18.229Z,19.75
2023-05-14T06:13:45.302Z,20.15
2023-05-14T06:16:12.498Z,17.15
2023-05-14T06:18:39.925Z,16.30
2023-05-14T06:21:07.043Z,15.70
2023-05-14T06:23:34.172Z,13.93
2023-05-14T06:26:01.265Z,12.82
2023-05-14T06:28:28.412Z,10.57
2023-05-14T06:30:55.822Z,10.60
2023-05-14T06:33:29.766Z,8.63
2023-05-14T06:35:57.586Z,8.02
2023-05-14T06:38:25.041Z,6.30
2023-05-14T06:40:53.153Z,6.40
2023-05-14T06:43:20.821Z,6.03
2023-05-14T06:45:51.073Z,6.28
2023-05-14T06:48:21.588Z,4.90
2023-05-14T06:50:49.281Z,5.05
2023-05-14T06:53:16.429Z,4.93
2023-05-14T06:55:43.783Z,4.63
2023-05-14T06:58:10.974Z,4.32
2023-05-14T07:00:38.341Z,5.25
2023-05-14T07:03:05.441Z,5.30
2023-05-14T07:05:32.588Z,5.10
2023-05-14T07:07:59.796Z,5.07
2023-05-14T07:10:27.179Z,4.95
2023-05-14T07:12:54.350Z,5.25
2023-05-14T07:15:21.500Z,5.10
2023-05-14T07:17:48.584Z,4.78
2023-05-14T07:20:15.690Z,4.38
2023-05-14T07:22:42.719Z,4.45
2023-05-14T07:25:09.935Z,3.97
2023-05-14T07:27:37.120Z,3.20
2023-05-14T07:30:04.272Z,3.05
2023-05-14T07:32:31.308Z,3.72
2023-05-14T07:34:58.439Z,3.13
2023-05-14T07:37:26.071Z,3.65
2023-05-14T07:39:53.858Z,3.92
2023-05-14T07:42:32.218Z,5.88
2023-05-14T07:45:03.478Z,4.05
2023-05-14T07:47:30.793Z,3.60
2023-05-14T07:49:58.016Z,3.03
2023-05-14T07:52:25.223Z,3.22
2023-05-14T07:54:52.549Z,3.08
2023-05-14T07:57:20.104Z,2.65
2023-05-14T07:59:47.933Z,2.63
2023-05-14T08:02:16.264Z,2.58
2023-05-14T08:04:43.792Z,2.30
2023-05-14T08:07:10.867Z,2.00
2023-05-14T08:09:38.042Z,2.30
2023-05-14T08:12:05.536Z,2.47
2023-05-14T08:14:32.744Z,2.42
2023-05-14T08:16:59.931Z,2.42
2023-05-14T08:19:27.784Z,2.40
2023-05-14T08:21:54.915Z,2.10
2023-05-14T08:24:21.987Z,2.60
2023-05-14T08:26:49.152Z,2.25
2023-05-14T08:29:16.867Z,1.90
2023-05-14T08:31:44.208Z,2.38
2023-05-14T08:34:11.349Z,2.40
2023-05-14T08:36:39.225Z,1.98
2023-05-14T08:39:07.762Z,2.35
2023-05-14T08:41:35.107Z,2.03
2023-05-14T08:44:05.243Z,2.08
2023-05-14T08:49:05.647Z,1.90
2023-05-14T08:51:33.243Z,1.90
2023-05-14T08:54:00.456Z,1.48
2023-05-14T08:56:27.516Z,2.17
2023-05-14T08:58:54.574Z,2.03
2023-05-14T09:01:21.811Z,2.20
2023-05-14T09:03:49.636Z,2.42
2023-05-14T09:06:16.779Z,3.70
2023-05-14T09:08:43.828Z,2.60
2023-05-14T09:11:10.907Z,2.70
2023-05-14T09:13:39.496Z,2.22
2023-05-14T09:16:06.813Z,2.08
2023-05-14T09:18:33.912Z,1.95
2023-05-14T09:21:01.157Z,2.15
2023-05-14T09:23:28.206Z,2.00
2023-05-14T09:25:56.101Z,1.98
2023-05-14T09:28:23.432Z,2.22
2023-05-14T09:30:52.143Z,3.47
2023-05-14T09:33:28.838Z,2.00
2023-05-14T09:35:58.304Z,2.50
2023-05-14T09:38:29.175Z,2.38
2023-05-14T09:40:56.441Z,2.00
2023-05-14T09:43:23.560Z,2.30
2023-05-14T09:45:50.729Z,2.53
2023-05-14T09:48:17.808Z,2.00
2023-05-14T09:50:45.348Z,2.28
2023-05-14T09:53:12.491Z,2.20
2023-05-14T09:55:39.683Z,2.58
2023-05-14T09:58:06.773Z,2.53
2023-05-14T10:00:34.334Z,2.38
2023-05-14T10:03:04.175Z,1.90
2023-05-14T10:05:31.252Z,2.05
2023-05-14T10:07:58.316Z,2.00
2023-05-14T10:10:27.936Z,2.13
2023-05-14T10:12:58.611Z,1.75
2023-05-14T10:15:31.213Z,2.00
2023-05-14T10:18:00.060Z,2.10
2023-05-14T10:20:27.341Z,2.20
2023-05-14T10:22:54.439Z,2.30
2023-05-14T10:25:21.851Z,2.25
2023-05-14T10:27:48.938Z,1.90
2023-05-14T10:30:16.000Z,2.00
2023-05-14T10:32:44.268Z,2.05
2023-05-14T10:35:18.266Z,2.00
2023-05-14T10:37:46.382Z,2.45
2023-05-14T10:40:13.942Z,3.00
2023-05-14T10:42:43.287Z,3.58
2023-05-14T10:45:14.096Z,2.23
2023-05-14T10:47:42.774Z,2.30
2023-05-14T10:50:10.928Z,2.17
2023-05-14T10:52:37.998Z,2.45
2023-05-14T10:55:08.577Z,2.25
2023-05-14T10:57:36.842Z,2.10
2023-05-14T11:00:07.045Z,2.20
2023-05-14T11:05:05.532Z,1.92
2023-05-14T11:07:39.312Z,2.03
2023-05-14T11:10:07.234Z,1.83
2023-05-14T11:12:38.498Z,1.88
2023-05-14T11:15:07.123Z,2.00
2023-05-14T11:17:34.727Z,2.20
2023-05-14T11:20:01.758Z,1.95
2023-05-14T11:22:28.854Z,1.83
2023-05-14T11:24:55.966Z,1.70
2023-05-14T11:27:23.987Z,2.00
2023-05-14T11:29:51.551Z,1.80
2023-05-14T11:32:18.832Z,2.08
2023-05-14T11:34:45.978Z,1.90
2023-05-14T11:37:13.460Z,1.90
2023-05-14T11:39:40.583Z,1.95
2023-05-14T11:42:14.722Z,2.03
2023-05-14T11:44:44.408Z,2.00
2023-05-14T11:47:11.546Z,2.03
2023-05-14T11:49:38.774Z,1.77
2023-05-14T11:52:06.512Z,1.70
2023-05-14T11:54:33.939Z,1.80
2023-05-14T11:57:02.458Z,1.90
2023-05-14T11:59:29.909Z,1.98
2023-05-14T12:01:56.981Z,1.60
2023-05-14T12:04:24.200Z,1.60
2023-05-14T12:06:51.472Z,1.80
2023-05-14T12:09:19.319Z,1.80
2023-05-14T12:11:52.668Z,1.95
2023-05-14T12:14:19.740Z,1.75
2023-05-14T12:16:47.094Z,1.88
2023-05-14T12:19:17.872Z,2.13
2023-05-14T12:21:45.316Z,1.95
2023-05-14T12:24:16.605Z,1.90
2023-05-14T12:26:47.254Z,1.88
2023-05-14T12:29:14.772Z,1.63
2023-05-14T12:31:51.367Z,1.52
2023-05-14T12:34:18.581Z,1.58
2023-05-14T12:36:45.691Z,2.00
2023-05-14T12:39:12.714Z,2.63
2023-05-14T12:41:40.164Z,1.67
2023-05-14T12:44:07.433Z,1.73
2023-05-14T12:46:34.681Z,1.45
2023-05-14T12:49:01.856Z,1.60
2023-05-14T12:51:30.037Z,1.63
2023-05-14T12:53:57.136Z,1.63
2023-05-14T12:56:28.404Z,1.50
2023-05-14T12:58:56.391Z,2.05
2023-05-14T13:01:23.885Z,1.80
2023-05-14T13:03:51.213Z,4.28
2023-05-14T13:06:18.331Z,7.28
2023-05-14T13:08:45.437Z,2.30
2023-05-14T13:11:12.498Z,3.35
2023-05-14T13:13:39.558Z,1.73
2023-05-14T13:16:06.778Z,1.85
2023-05-14T13:18:34.026Z,1.70
2023-05-14T13:21:04.226Z,2.03
2023-05-14T13:23:31.396Z,2.08
2023-05-14T13:25:58.469Z,1.63
2023-05-14T13:28:25.516Z,1.80
2023-05-14T13:31:11.825Z,1.90
2023-05-14T13:33:42.687Z,2.10
2023-05-14T13:36:10.494Z,1.80
2023-05-14T13:38:37.608Z,1.60
2023-05-14T13:41:04.800Z,1.70
2023-05-14T13:43:32.005Z,1.77
2023-05-14T13:45:59.195Z,1.75
2023-05-14T13:48:27.004Z,2.08
2023-05-14T13:50:54.155Z,1.90
2023-05-14T13:53:21.536Z,1.25
2023-05-14T13:55:49.352Z,1.58
2023-05-14T13:58:16.760Z,1.10
2023-05-14T14:00:43.846Z,1.13
2023-05-14T14:03:11.061Z,1.20
2023-05-14T14:05:38.281Z,1.10
2023-05-14T14:08:21.967Z,1.13
2023-05-14T14:10:49.585Z,1.13
2023-05-14T14:13:16.964Z,1.58
2023-05-14T14:15:44.284Z,1.48
2023-05-14T14:18:11.453Z,1.50
2023-05-14T14:20:38.512Z,1.33
2023-05-14T14:23:05.580Z,1.30
2023-05-14T14:25:32.668Z,1.30
2023-05-14T14:27:59.743Z,1.40
2023-05-14T14:30:26.810Z,1.27
2023-05-14T14:32:54.001Z,1.35
2023-05-14T14:35:21.323Z,1.40
2023-05-14T14:37:50.608Z,1.17
2023-05-14T14:40:17.864Z,1.30
2023-05-14T14:42:44.907Z,1.40
2023-05-14T14:45:12.383Z,1.38
2023-05-14T14:47:39.608Z,1.40
2023-05-14T14:50:07.230Z,2.10
2023-05-14T14:52:34.445Z,2.47
2023-05-14T14:55:01.514Z,2.17
2023-05-14T14:57:28.592Z,2.10
2023-05-14T14:59:55.713Z,1.40
2023-05-14T15:02:22.936Z,1.13
2023-05-14T15:04:50.245Z,1.50
2023-05-14T15:07:18.621Z,1.10
2023-05-14T15:09:45.786Z,1.17
2023-05-14T15:12:14.135Z,1.10
2023-05-14T15:14:41.357Z,1.80
2023-05-14T15:17:08.481Z,1.20
2023-05-14T15:19:35.703Z,1.40
2023-05-14T15:22:02.782Z,1.30
2023-05-14T15:24:29.804Z,0.93
2023-05-14T15:26:56.886Z,1.15
2023-05-14T15:29:23.927Z,1.13
2023-05-14T15:31:51.055Z,1.25
2023-05-14T15:34:18.094Z,1.42
2023-05-14T15:36:45.217Z,1.30
2023-05-14T15:39:12.804Z,1.10
2023-05-14T15:41:39.913Z,1.35
2023-05-14T15:44:07.144Z,1.17
2023-05-14T15:46:35.108Z,1.00
2023-05-14T15:49:02.180Z,1.17
2023-05-14T15:51:29.355Z,1.30
2023-05-14T15:53:56.442Z,0.90
2023-05-14T15:56:23.476Z,1.20
2023-05-14T15:58:50.888Z,0.70
2023-05-14T16:01:19.168Z,0.90
2023-05-14T16:03:46.461Z,1.23
2023-05-14T16:06:13.605Z,1.20
2023-05-14T16:08:40.716Z,1.00
2023-05-14T16:11:07.982Z,1.45
2023-05-14T16:13:37.620Z,1.42
2023-05-14T16:16:04.925Z,1.48
2023-05-14T16:18:32.116Z,1.63
2023-05-14T16:20:59.349Z,1.80
2023-05-14T16:23:29.366Z,1.42
2023-05-14T16:25:56.464Z,1.73
2023-05-14T16:28:23.712Z,1.70
2023-05-14T16:30:50.830Z,1.48
2023-05-14T16:33:17.928Z,1.50
2023-05-14T16:35:45.460Z,2.63
2023-05-14T16:38:12.585Z,2.00
2023-05-14T16:40:39.854Z,2.60
2023-05-14T16:43:07.002Z,2.15
2023-05-14T16:45:36.777Z,2.05
2023-05-14T16:48:04.763Z,1.70
2023-05-14T16:50:31.888Z,1.80
2023-05-14T16:52:58.978Z,1.95
2023-05-14T16:55:26.473Z,2.25
2023-05-14T16:57:53.523Z,2.00
2023-05-14T17:00:20.980Z,2.00
2023-05-14T17:02:49.696Z,2.08
2023-05-14T17:05:17.110Z,2.20
2023-05-14T17:07:44.195Z,2.15
2023-05-14T17:10:11.265Z,2.03
2023-05-14T17:12:38.752Z,2.10
2023-05-14T17:15:09.307Z,2.40
2023-05-14T17:17:36.525Z,2.08
2023-05-14T17:20:05.526Z,2.10
2023-05-14T17:22:32.787Z,2.08
2023-05-14T17:24:59.924Z,2.33
2023-05-14T17:27:29.143Z,2.10
2023-05-14T17:29:56.258Z,3.00
2023-05-14T17:32:23.457Z,3.20
2023-05-14T17:34:50.730Z,3.08
2023-05-14T17:37:17.925Z,3.22
2023-05-14T17:39:45.079Z,2.90
2023-05-14T17:42:12.184Z,2.80
2023-05-14T17:44:39.264Z,2.60
2023-05-14T17:47:07.164Z,3.00
2023-05-14T17:49:34.388Z,2.30
2023-05-14T17:52:01.482Z,2.28
2023-05-14T17:54:28.533Z,2.38
2023-05-14T17:56:55.753Z,2.30
2023-05-14T17:59:24.297Z,2.17
2023-05-14T18:01:51.706Z,2.10
2023-05-14T18:04:18.800Z,2.00
2023-05-14T18:06:45.969Z,1.95
2023-05-14T18:09:13.099Z,2.20
2023-05-14T18:11:40.123Z,2.60
2023-05-14T18:14:07.232Z,2.45
2023-05-14T18:16:34.412Z,3.03
2023-05-14T18:19:01.525Z,2.88
2023-05-14T18:21:28.802Z,2.53
2023-05-14T18:24:01.407Z,3.28
2023-05-14T18:26:28.733Z,3.40
2023-05-14T18:28:58.090Z,2.47
2023-05-14T18:31:27.642Z,2.63
2023-05-14T18:33:54.807Z,2.55
2023-05-14T18:36:21.931Z,2.63
2023-05-14T18:38:49.017Z,2.08
2023-05-14T18:41:16.057Z,2.03
2023-05-14T18:43:43.159Z,6.28
2023-05-14T18:46:11.362Z,2.80
2023-05-14T18:48:38.528Z,2.38
2023-05-14T18:51:05.622Z,2.55
2023-05-14T18:53:32.715Z,2.70
2023-05-14T18:56:00.526Z,2.40
2023-05-14T18:58:28.161Z,2.47
2023-05-14T19:00:57.806Z,2.65
2023-05-14T19:03:25.117Z,2.65
2023-05-14T19:05:53.138Z,2.60
2023-05-14T19:08:20.795Z,2.70
2023-05-14T19:10:48.447Z,2.50
2023-05-14T19:13:18.519Z,2.65
2023-05-14T19:15:45.883Z,2.97
2023-05-14T19:18:13.820Z,3.55
2023-05-14T19:20:42.143Z,3.42
2023-05-14T19:23:09.259Z,3.67
2023-05-14T19:25:36.401Z,3.88
2023-05-14T19:28:04.840Z,3.70
2023-05-14T19:30:32.075Z,4.05
2023-05-14T19:32:59.238Z,4.28
2023-05-14T19:35:26.649Z,4.97
2023-05-14T19:37:53.835Z,3.17
2023-05-14T19:40:20.884Z,22.27
2023-05-14T19:42:47.915Z,3.92
2023-05-14T19:45:15.006Z,3.30
2023-05-14T19:47:42.804Z,3.53
2023-05-14T19:50:10.129Z,3.95
2023-05-14T19:52:37.172Z,3.65
2023-05-14T19:55:04.294Z,3.53
2023-05-14T19:57:31.350Z,3.55
2023-05-14T19:59:58.648Z,3.20
2023-05-14T20:02:26.489Z,3.80
2023-05-14T20:04:56.579Z,5.30
2023-05-14T20:07:25.492Z,4.40
2023-05-14T20:09:52.589Z,3.92
2023-05-14T20:12:19.783Z,3.70
2023-05-14T20:14:46.830Z,3.72
2023-05-14T20:17:14.035Z,4.13
2023-05-14T20:19:41.303Z,3.20
2023-05-14T20:22:08.556Z,3.70
2023-05-14T20:24:35.787Z,3.88
2023-05-14T20:27:03.016Z,3.15
2023-05-14T20:29:30.090Z,3.55
2023-05-14T20:31:57.281Z,3.22
2023-05-14T20:34:24.616Z,3.25
2023-05-14T20:36:52.162Z,2.80
2023-05-14T20:39:19.327Z,3.28
2023-05-14T20:41:46.512Z,3.65
2023-05-14T20:44:13.638Z,6.00
2023-05-14T20:46:40.923Z,4.13
2023-05-14T20:49:08.055Z,3.90
2023-05-14T20:51:35.392Z,4.13
2023-05-14T20:54:02.778Z,5.32
2023-05-14T20:56:30.320Z,4.65
2023-05-14T20:58:57.493Z,5.50
2023-05-14T21:01:24.633Z,4.63
2023-05-14T21:03:51.943Z,4.65
2023-05-14T21:06:19.120Z,5.25
2023-05-14T21:08:46.188Z,4.28
2023-05-14T21:11:14.149Z,4.32
2023-05-14T21:13:41.321Z,4.50
2023-05-14T21:16:08.494Z,4.10
2023-05-14T21:18:35.799Z,4.20
2023-05-14T21:21:03.168Z,4.25
2023-05-14T21:23:30.300Z,4.93
2023-05-14T21:25:57.882Z,4.75
2023-05-14T21:28:24.900Z,5.60
2023-05-14T21:30:52.967Z,4.90
2023-05-14T21:33:20.127Z,4.50
2023-05-14T21:35:47.173Z,5.00
2023-05-14T21:38:14.192Z,4.97
2023-05-14T21:40:41.277Z,4.80
2023-05-14T21:43:08.400Z,4.45
2023-05-14T21:45:35.552Z,5.60
2023-05-14T21:48:02.656Z,36.33
2023-05-14T21:50:29.771Z,8.85
2023-05-14T21:52:56.837Z,6.35
2023-05-14T21:55:24.132Z,6.88
2023-05-14T21:57:51.389Z,5.85
2023-05-14T22:00:23.397Z,6.00
2023-05-14T22:02:51.104Z,5.90
2023-05-14T22:05:18.253Z,5.47
2023-05-14T22:07:45.343Z,5.68
2023-05-14T22:10:15.700Z,5.70
2023-05-14T22:12:43.445Z,6.15
2023-05-14T22:15:10.720Z,5.88
2023-05-14T22:17:38.265Z,7.57
2023-05-14T22:20:06.617Z,6.43
2023-05-14T22:22:34.184Z,5.82
2023-05-14T22:25:01.284Z,7.22
2023-05-14T22:27:28.418Z,5.32
2023-05-14T22:29:55.547Z,5.25
2023-05-14T22:32:22.661Z,5.60
2023-05-14T22:34:49.770Z,4.97
2023-05-14T22:37:17.045Z,4.13
2023-05-14T22:39:44.121Z,4.20
2023-05-14T22:42:11.288Z,5.00
2023-05-14T22:44:38.386Z,4.95
2023-05-14T22:47:05.545Z,5.13
2023-05-14T22:49:32.637Z,5.45
2023-05-14T22:51:59.886Z,5.32
2023-05-14T22:54:26.934Z,5.60
2023-05-14T22:56:54.037Z,4.95
2023-05-14T22:59:23.434Z,4.97
2023-05-14T23:01:50.975Z,4.57
2023-05-14T23:04:18.191Z,5.38
2023-05-14T23:06:45.350Z,4.90
2023-05-14T23:09:12.416Z,5.10
2023-05-14T23:11:39.460Z,5.32
2023-05-14T23:14:06.581Z,5.60
2023-05-14T23:16:33.740Z,5.72
2023-05-14T23:19:00.990Z,5.60
2023-05-14T23:21:28.229Z,6.40
2023-05-14T23:23:55.304Z,6.50
2023-05-14T23:26:22.370Z,6.07
2023-05-14T23:28:49.433Z,6.85
2023-05-14T23:31:16.558Z,7.25
2023-05-14T23:33:44.665Z,6.55
2023-05-14T23:36:11.786Z,6.30
2023-05-14T23:38:38.896Z,6.97
2023-05-14T23:41:06.001Z,6.90
2023-05-14T23:43:33.808Z,6.65
2023-05-14T23:46:01.249Z,6.88
2023-05-14T23:48:28.456Z,6.88
2023-05-14T23:50:55.551Z,7.25
2023-05-14T23:53:22.648Z,6.97
2023-05-14T23:55:49.723Z,7.50
2023-05-14T23:58:16.792Z,7.15
